SHEH weather

Public forecast

Using degrees Celsius for public forecast. Weather courtesy of forecast.io.

Closest aviation weather report (METAR) to Edificio Huidobro Heliport

Closest report is Eulogio Sánchez Airport, 3.4 nm (6.3 km) SSE. Retrieved 2020/08/14 16:00 UTC (24 minutes ago):

SCTB 141600Z 00000KT 6000 BKN060 OVC080 08/03 Q1021

Closest aviation forecast (TAF) to Edificio Huidobro Heliport

Closest forecast is Comodoro Arturo Merino Benítez International Airport, 10.7 nm (19.8 km) W. Retrieved 2020/08/14 12:00 UTC (4 hours ago):

TAF COR SCEL 141043Z 1412/1512 18004KT 8000 SCT008 BKN015 TX14/1418Z TN02/1510Z TEMPO 1412/1414 VRB02KT 6000 SCT002 BKN008 BECMG 1415/1417 15008KT 9999 SCT015 BECMG 1417/1418 18010KT CAVOK BECMG 1502/1504 VRB02KT 8000 NSC